TAF LEMO
METAR LEMO
LEMO 080300Z 23016KT 8000 -RA FEW009 SCT014 BKN031 14/13 Q1019 NOSIG=
LEMO 080230Z 22013KT 9999 FEW010 SCT015 BKN018 14/12 Q1019 NOSIG=
LEMO 080200Z 22011KT 9999 FEW006 BKN013 14/12 Q1019 NOSIG=
LEMO 080130Z 22010KT 9999 SCT007 BKN010 13/12 Q1019 NOSIG=
LEMO 080100Z 22010KT 9999 BKN006 OVC007 13/12 Q1019 NOSIG=
WC LEMO
WS LEMO
WV LEMO